sensor_id;sensor_type;location;lat;lon;timestamp;P1;durP1;ratioP1;P2;durP2;ratioP2
65145;SDS011;51730;56.950;24.126;2022-12-29T00:00:19;37.30;;;16.83;;
65145;SDS011;51730;56.950;24.126;2022-12-29T00:02:51;32.05;;;16.08;;
65145;SDS011;51730;56.950;24.126;2022-12-29T00:05:21;29.63;;;15.90;;
65145;SDS011;51730;56.950;24.126;2022-12-29T00:07:47;32.85;;;14.80;;
65145;SDS011;51730;56.950;24.126;2022-12-29T00:10:14;34.10;;;15.43;;
65145;SDS011;51730;56.950;24.126;2022-12-29T00:12:41;32.85;;;16.25;;
65145;SDS011;51730;56.950;24.126;2022-12-29T00:15:27;34.88;;;16.70;;
65145;SDS011;51730;56.950;24.126;2022-12-29T00:18:03;35.72;;;16.15;;
65145;SDS011;51730;56.950;24.126;2022-12-29T00:20:32;34.28;;;16.85;;
65145;SDS011;51730;56.950;24.126;2022-12-29T00:23:21;35.63;;;15.32;;
65145;SDS011;51730;56.950;24.126;2022-12-29T00:26:13;36.47;;;16.55;;
65145;SDS011;51730;56.950;24.126;2022-12-29T00:28:59;32.80;;;16.05;;
65145;SDS011;51730;56.950;24.126;2022-12-29T00:31:45;35.22;;;16.88;;
65145;SDS011;51730;56.950;24.126;2022-12-29T00:34:30;34.63;;;17.13;;
65145;SDS011;51730;56.950;24.126;2022-12-29T00:37:16;39.10;;;17.42;;
65145;SDS011;51730;56.950;24.126;2022-12-29T00:40:03;35.10;;;16.42;;
65145;SDS011;51730;56.950;24.126;2022-12-29T00:42:49;33.17;;;15.82;;
65145;SDS011;51730;56.950;24.126;2022-12-29T00:45:34;36.08;;;16.33;;
65145;SDS011;51730;56.950;24.126;2022-12-29T00:48:01;36.10;;;17.33;;
65145;SDS011;51730;56.950;24.126;2022-12-29T00:50:28;34.75;;;15.88;;
65145;SDS011;51730;56.950;24.126;2022-12-29T00:52:55;33.80;;;16.40;;
65145;SDS011;51730;56.950;24.126;2022-12-29T00:55:22;32.00;;;15.23;;
65145;SDS011;51730;56.950;24.126;2022-12-29T00:57:49;33.10;;;16.55;;
65145;SDS011;51730;56.950;24.126;2022-12-29T01:00:16;32.85;;;15.30;;
65145;SDS011;51730;56.950;24.126;2022-12-29T01:02:43;36.80;;;16.35;;
65145;SDS011;51730;56.950;24.126;2022-12-29T01:05:10;31.88;;;16.08;;
65145;SDS011;51730;56.950;24.126;2022-12-29T01:07:37;35.38;;;16.27;;
65145;SDS011;51730;56.950;24.126;2022-12-29T01:10:04;39.38;;;17.42;;
65145;SDS011;51730;56.950;24.126;2022-12-29T01:12:37;33.75;;;16.13;;
65145;SDS011;51730;56.950;24.126;2022-12-29T01:15:08;36.30;;;16.25;;
65145;SDS011;51730;56.950;24.126;2022-12-29T01:17:36;33.20;;;16.23;;
65145;SDS011;51730;56.950;24.126;2022-12-29T01:20:03;33.95;;;16.50;;
65145;SDS011;51730;56.950;24.126;2022-12-29T01:22:31;35.08;;;16.27;;
65145;SDS011;51730;56.950;24.126;2022-12-29T01:24:57;38.42;;;16.83;;
65145;SDS011;51730;56.950;24.126;2022-12-29T01:27:24;35.85;;;16.67;;
65145;SDS011;51730;56.950;24.126;2022-12-29T01:29:52;36.53;;;16.90;;
65145;SDS011;51730;56.950;24.126;2022-12-29T01:32:18;35.40;;;15.68;;
65145;SDS011;51730;56.950;24.126;2022-12-29T01:34:45;40.75;;;17.52;;
65145;SDS011;51730;56.950;24.126;2022-12-29T01:37:12;38.30;;;17.42;;
65145;SDS011;51730;56.950;24.126;2022-12-29T01:39:39;40.92;;;18.67;;
65145;SDS011;51730;56.950;24.126;2022-12-29T01:42:10;42.17;;;17.83;;
65145;SDS011;51730;56.950;24.126;2022-12-29T01:44:47;38.50;;;17.45;;
65145;SDS011;51730;56.950;24.126;2022-12-29T01:47:25;43.35;;;18.85;;
65145;SDS011;51730;56.950;24.126;2022-12-29T01:50:01;41.40;;;17.50;;
65145;SDS011;51730;56.950;24.126;2022-12-29T01:52:33;40.35;;;17.63;;
65145;SDS011;51730;56.950;24.126;2022-12-29T01:55:03;41.67;;;16.98;;
65145;SDS011;51730;56.950;24.126;2022-12-29T01:57:33;38.92;;;17.98;;
65145;SDS011;51730;56.950;24.126;2022-12-29T02:02:35;41.85;;;17.17;;
65145;SDS011;51730;56.950;24.126;2022-12-29T02:05:04;41.70;;;16.90;;
65145;SDS011;51730;56.950;24.126;2022-12-29T02:07:45;39.15;;;16.55;;
65145;SDS011;51730;56.950;24.126;2022-12-29T02:10:14;46.97;;;18.67;;
65145;SDS011;51730;56.950;24.126;2022-12-29T02:12:42;40.75;;;17.67;;
65145;SDS011;51730;56.950;24.126;2022-12-29T02:15:11;42.22;;;17.48;;
65145;SDS011;51730;56.950;24.126;2022-12-29T02:17:47;43.72;;;17.70;;
65145;SDS011;51730;56.950;24.126;2022-12-29T02:26:27;42.25;;;17.13;;
65145;SDS011;51730;56.950;24.126;2022-12-29T02:42:23;49.90;;;18.90;;
65145;SDS011;51730;56.950;24.126;2022-12-29T02:45:13;43.25;;;17.88;;
65145;SDS011;51730;56.950;24.126;2022-12-29T02:47:56;44.72;;;17.35;;
65145;SDS011;51730;56.950;24.126;2022-12-29T02:50:29;58.20;;;19.50;;
65145;SDS011;51730;56.950;24.126;2022-12-29T02:53:13;46.40;;;18.02;;
65145;SDS011;51730;56.950;24.126;2022-12-29T02:55:49;44.97;;;18.00;;
65145;SDS011;51730;56.950;24.126;2022-12-29T02:58:20;48.05;;;17.55;;
65145;SDS011;51730;56.950;24.126;2022-12-29T03:03:43;49.40;;;17.98;;
65145;SDS011;51730;56.950;24.126;2022-12-29T03:15:31;40.25;;;14.90;;
65145;SDS011;51730;56.950;24.126;2022-12-29T03:18:23;40.20;;;16.08;;
65145;SDS011;51730;56.950;24.126;2022-12-29T03:21:02;39.03;;;16.65;;
65145;SDS011;51730;56.950;24.126;2022-12-29T03:24:19;41.67;;;16.48;;
65145;SDS011;51730;56.950;24.126;2022-12-29T03:26:49;40.00;;;16.15;;
65145;SDS011;51730;56.950;24.126;2022-12-29T03:29:19;45.67;;;17.20;;
65145;SDS011;51730;56.950;24.126;2022-12-29T03:31:48;38.83;;;15.98;;
65145;SDS011;51730;56.950;24.126;2022-12-29T03:34:17;37.17;;;15.20;;
65145;SDS011;51730;56.950;24.126;2022-12-29T03:37:09;40.40;;;15.13;;
65145;SDS011;51730;56.950;24.126;2022-12-29T03:39:39;37.85;;;14.90;;
65145;SDS011;51730;56.950;24.126;2022-12-29T03:42:11;40.33;;;16.05;;
65145;SDS011;51730;56.950;24.126;2022-12-29T03:44:43;36.25;;;14.90;;
65145;SDS011;51730;56.950;24.126;2022-12-29T03:47:11;39.72;;;16.25;;
65145;SDS011;51730;56.950;24.126;2022-12-29T03:49:40;36.75;;;16.08;;
65145;SDS011;51730;56.950;24.126;2022-12-29T03:52:07;39.38;;;16.70;;
65145;SDS011;51730;56.950;24.126;2022-12-29T03:54:34;43.47;;;16.35;;
65145;SDS011;51730;56.950;24.126;2022-12-29T03:57:01;44.08;;;16.70;;
65145;SDS011;51730;56.950;24.126;2022-12-29T03:59:28;39.50;;;16.08;;
65145;SDS011;51730;56.950;24.126;2022-12-29T04:01:55;41.97;;;15.82;;
65145;SDS011;51730;56.950;24.126;2022-12-29T04:04:22;33.10;;;14.88;;
65145;SDS011;51730;56.950;24.126;2022-12-29T04:06:49;35.40;;;14.55;;
65145;SDS011;51730;56.950;24.126;2022-12-29T04:09:16;39.20;;;15.88;;
65145;SDS011;51730;56.950;24.126;2022-12-29T04:11:43;33.10;;;14.43;;
65145;SDS011;51730;56.950;24.126;2022-12-29T04:14:10;34.42;;;14.05;;
65145;SDS011;51730;56.950;24.126;2022-12-29T04:16:36;35.60;;;14.80;;
65145;SDS011;51730;56.950;24.126;2022-12-29T04:19:05;35.35;;;14.15;;
65145;SDS011;51730;56.950;24.126;2022-12-29T04:21:33;34.65;;;14.23;;
65145;SDS011;51730;56.950;24.126;2022-12-29T04:24:00;31.50;;;14.20;;
65145;SDS011;51730;56.950;24.126;2022-12-29T04:26:27;33.25;;;14.05;;
65145;SDS011;51730;56.950;24.126;2022-12-29T04:28:54;32.47;;;13.85;;
65145;SDS011;51730;56.950;24.126;2022-12-29T04:31:21;29.70;;;13.52;;
65145;SDS011;51730;56.950;24.126;2022-12-29T04:33:48;30.60;;;13.82;;
65145;SDS011;51730;56.950;24.126;2022-12-29T04:36:15;27.88;;;12.88;;
65145;SDS011;51730;56.950;24.126;2022-12-29T04:38:43;26.70;;;12.25;;
65145;SDS011;51730;56.950;24.126;2022-12-29T04:41:10;28.85;;;12.45;;
65145;SDS011;51730;56.950;24.126;2022-12-29T04:43:37;29.00;;;13.35;;
65145;SDS011;51730;56.950;24.126;2022-12-29T04:46:04;29.02;;;13.30;;
65145;SDS011;51730;56.950;24.126;2022-12-29T04:48:32;28.17;;;13.15;;
65145;SDS011;51730;56.950;24.126;2022-12-29T04:50:59;26.73;;;12.70;;
65145;SDS011;51730;56.950;24.126;2022-12-29T04:53:26;24.58;;;11.60;;
65145;SDS011;51730;56.950;24.126;2022-12-29T04:55:53;29.02;;;12.75;;
65145;SDS011;51730;56.950;24.126;2022-12-29T04:58:20;29.40;;;13.98;;
65145;SDS011;51730;56.950;24.126;2022-12-29T05:00:48;33.80;;;13.40;;
65145;SDS011;51730;56.950;24.126;2022-12-29T05:03:17;33.78;;;13.55;;
65145;SDS011;51730;56.950;24.126;2022-12-29T05:05:44;28.98;;;13.05;;
65145;SDS011;51730;56.950;24.126;2022-12-29T05:08:11;27.90;;;12.70;;
65145;SDS011;51730;56.950;24.126;2022-12-29T05:10:38;29.40;;;13.52;;
65145;SDS011;51730;56.950;24.126;2022-12-29T05:13:05;28.75;;;13.25;;
65145;SDS011;51730;56.950;24.126;2022-12-29T05:15:32;33.35;;;13.35;;
65145;SDS011;51730;56.950;24.126;2022-12-29T05:17:59;30.58;;;13.18;;
65145;SDS011;51730;56.950;24.126;2022-12-29T05:20:26;26.92;;;12.43;;
65145;SDS011;51730;56.950;24.126;2022-12-29T05:22:53;25.10;;;11.05;;
65145;SDS011;51730;56.950;24.126;2022-12-29T05:25:20;24.30;;;11.50;;
65145;SDS011;51730;56.950;24.126;2022-12-29T05:27:47;27.63;;;12.35;;
65145;SDS011;51730;56.950;24.126;2022-12-29T05:30:14;26.52;;;12.27;;
65145;SDS011;51730;56.950;24.126;2022-12-29T05:32:40;23.15;;;12.02;;
65145;SDS011;51730;56.950;24.126;2022-12-29T05:35:07;28.85;;;12.45;;
65145;SDS011;51730;56.950;24.126;2022-12-29T05:37:35;23.52;;;11.55;;
65145;SDS011;51730;56.950;24.126;2022-12-29T05:40:02;23.50;;;12.27;;
65145;SDS011;51730;56.950;24.126;2022-12-29T05:42:29;25.85;;;12.15;;
65145;SDS011;51730;56.950;24.126;2022-12-29T05:44:56;24.70;;;11.65;;
65145;SDS011;51730;56.950;24.126;2022-12-29T05:47:23;23.67;;;11.38;;
65145;SDS011;51730;56.950;24.126;2022-12-29T05:49:50;25.90;;;12.48;;
65145;SDS011;51730;56.950;24.126;2022-12-29T05:52:17;27.17;;;12.70;;
65145;SDS011;51730;56.950;24.126;2022-12-29T05:54:44;23.25;;;11.50;;
65145;SDS011;51730;56.950;24.126;2022-12-29T05:57:11;24.58;;;11.63;;
65145;SDS011;51730;56.950;24.126;2022-12-29T05:59:38;25.00;;;12.02;;
65145;SDS011;51730;56.950;24.126;2022-12-29T06:02:05;25.63;;;12.45;;
65145;SDS011;51730;56.950;24.126;2022-12-29T06:04:32;27.95;;;13.13;;
65145;SDS011;51730;56.950;24.126;2022-12-29T06:06:59;25.80;;;12.68;;
65145;SDS011;51730;56.950;24.126;2022-12-29T06:09:26;30.08;;;13.50;;
65145;SDS011;51730;56.950;24.126;2022-12-29T06:11:53;34.78;;;14.32;;
65145;SDS011;51730;56.950;24.126;2022-12-29T06:14:20;30.33;;;13.07;;
65145;SDS011;51730;56.950;24.126;2022-12-29T06:16:47;33.28;;;14.43;;
65145;SDS011;51730;56.950;24.126;2022-12-29T06:19:14;29.23;;;13.90;;
65145;SDS011;51730;56.950;24.126;2022-12-29T06:21:40;31.35;;;13.52;;
65145;SDS011;51730;56.950;24.126;2022-12-29T06:24:07;33.00;;;15.65;;
65145;SDS011;51730;56.950;24.126;2022-12-29T06:26:36;29.55;;;14.20;;
65145;SDS011;51730;56.950;24.126;2022-12-29T06:29:03;35.67;;;15.05;;
65145;SDS011;51730;56.950;24.126;2022-12-29T06:31:30;34.60;;;14.88;;
65145;SDS011;51730;56.950;24.126;2022-12-29T06:33:57;36.53;;;14.57;;
65145;SDS011;51730;56.950;24.126;2022-12-29T06:38:55;34.78;;;13.90;;
65145;SDS011;51730;56.950;24.126;2022-12-29T06:41:22;31.38;;;14.00;;
65145;SDS011;51730;56.950;24.126;2022-12-29T06:43:57;31.73;;;14.13;;
65145;SDS011;51730;56.950;24.126;2022-12-29T06:46:24;35.40;;;13.82;;
65145;SDS011;51730;56.950;24.126;2022-12-29T06:48:51;39.53;;;15.80;;
65145;SDS011;51730;56.950;24.126;2022-12-29T06:51:18;40.55;;;14.88;;
65145;SDS011;51730;56.950;24.126;2022-12-29T06:53:44;42.42;;;15.73;;
65145;SDS011;51730;56.950;24.126;2022-12-29T06:56:11;38.85;;;14.80;;
65145;SDS011;51730;56.950;24.126;2022-12-29T06:58:38;38.55;;;15.32;;
65145;SDS011;51730;56.950;24.126;2022-12-29T07:01:05;36.55;;;13.90;;
65145;SDS011;51730;56.950;24.126;2022-12-29T07:03:32;44.83;;;17.00;;
65145;SDS011;51730;56.950;24.126;2022-12-29T07:05:59;41.13;;;14.70;;
65145;SDS011;51730;56.950;24.126;2022-12-29T07:08:26;43.95;;;16.35;;
65145;SDS011;51730;56.950;24.126;2022-12-29T07:10:53;43.35;;;15.20;;
65145;SDS011;51730;56.950;24.126;2022-12-29T07:13:20;44.75;;;15.55;;
65145;SDS011;51730;56.950;24.126;2022-12-29T07:15:47;41.90;;;14.95;;
65145;SDS011;51730;56.950;24.126;2022-12-29T07:18:14;44.80;;;15.43;;
65145;SDS011;51730;56.950;24.126;2022-12-29T07:20:42;38.47;;;14.95;;
65145;SDS011;51730;56.950;24.126;2022-12-29T07:23:09;42.38;;;15.55;;
65145;SDS011;51730;56.950;24.126;2022-12-29T07:25:36;38.55;;;15.00;;
65145;SDS011;51730;56.950;24.126;2022-12-29T07:28:03;40.35;;;16.13;;
65145;SDS011;51730;56.950;24.126;2022-12-29T07:30:30;44.13;;;16.05;;
65145;SDS011;51730;56.950;24.126;2022-12-29T07:32:57;45.00;;;16.20;;
65145;SDS011;51730;56.950;24.126;2022-12-29T07:35:24;44.95;;;16.15;;
65145;SDS011;51730;56.950;24.126;2022-12-29T07:37:51;48.67;;;16.63;;
65145;SDS011;51730;56.950;24.126;2022-12-29T07:40:18;48.60;;;16.13;;
65145;SDS011;51730;56.950;24.126;2022-12-29T07:42:45;60.45;;;20.30;;
65145;SDS011;51730;56.950;24.126;2022-12-29T07:45:11;50.80;;;16.80;;
65145;SDS011;51730;56.950;24.126;2022-12-29T07:47:38;42.17;;;16.48;;
65145;SDS011;51730;56.950;24.126;2022-12-29T07:50:05;47.05;;;16.98;;
65145;SDS011;51730;56.950;24.126;2022-12-29T07:52:32;50.25;;;15.55;;
65145;SDS011;51730;56.950;24.126;2022-12-29T07:54:59;40.15;;;14.80;;
65145;SDS011;51730;56.950;24.126;2022-12-29T07:57:26;43.67;;;15.20;;
65145;SDS011;51730;56.950;24.126;2022-12-29T07:59:57;42.15;;;16.45;;
65145;SDS011;51730;56.950;24.126;2022-12-29T08:02:24;41.53;;;16.33;;
65145;SDS011;51730;56.950;24.126;2022-12-29T08:04:53;49.33;;;17.00;;
65145;SDS011;51730;56.950;24.126;2022-12-29T08:07:19;47.60;;;16.63;;
65145;SDS011;51730;56.950;24.126;2022-12-29T08:09:46;41.35;;;15.65;;
65145;SDS011;51730;56.950;24.126;2022-12-29T08:12:13;45.83;;;16.33;;
65145;SDS011;51730;56.950;24.126;2022-12-29T08:14:40;45.70;;;17.13;;
65145;SDS011;51730;56.950;24.126;2022-12-29T08:17:07;40.95;;;14.70;;
65145;SDS011;51730;56.950;24.126;2022-12-29T08:19:34;39.42;;;15.27;;
65145;SDS011;51730;56.950;24.126;2022-12-29T08:22:01;44.72;;;17.80;;
65145;SDS011;51730;56.950;24.126;2022-12-29T08:24:28;39.20;;;14.52;;
65145;SDS011;51730;56.950;24.126;2022-12-29T08:26:55;37.50;;;14.18;;
65145;SDS011;51730;56.950;24.126;2022-12-29T08:29:22;35.45;;;13.90;;
65145;SDS011;51730;56.950;24.126;2022-12-29T08:31:49;33.05;;;13.90;;
65145;SDS011;51730;56.950;24.126;2022-12-29T08:34:16;39.72;;;15.25;;
65145;SDS011;51730;56.950;24.126;2022-12-29T08:36:43;27.33;;;12.98;;
65145;SDS011;51730;56.950;24.126;2022-12-29T08:39:10;34.50;;;14.57;;
65145;SDS011;51730;56.950;24.126;2022-12-29T08:41:37;30.88;;;13.18;;
65145;SDS011;51730;56.950;24.126;2022-12-29T08:44:04;33.15;;;13.90;;
65145;SDS011;51730;56.950;24.126;2022-12-29T08:46:31;32.22;;;14.75;;
65145;SDS011;51730;56.950;24.126;2022-12-29T08:48:58;33.88;;;15.38;;
65145;SDS011;51730;56.950;24.126;2022-12-29T08:51:25;33.92;;;14.05;;
65145;SDS011;51730;56.950;24.126;2022-12-29T08:53:52;32.70;;;13.57;;
65145;SDS011;51730;56.950;24.126;2022-12-29T08:56:19;30.55;;;12.98;;
65145;SDS011;51730;56.950;24.126;2022-12-29T08:58:46;28.73;;;13.38;;
65145;SDS011;51730;56.950;24.126;2022-12-29T09:01:13;27.75;;;13.05;;
65145;SDS011;51730;56.950;24.126;2022-12-29T09:03:40;28.10;;;12.65;;
65145;SDS011;51730;56.950;24.126;2022-12-29T09:06:27;30.02;;;12.88;;
65145;SDS011;51730;56.950;24.126;2022-12-29T09:08:54;29.30;;;12.57;;
65145;SDS011;51730;56.950;24.126;2022-12-29T09:11:24;29.08;;;12.30;;
65145;SDS011;51730;56.950;24.126;2022-12-29T09:13:52;28.42;;;13.95;;
65145;SDS011;51730;56.950;24.126;2022-12-29T09:16:20;26.45;;;11.77;;
65145;SDS011;51730;56.950;24.126;2022-12-29T09:18:49;24.30;;;13.13;;
65145;SDS011;51730;56.950;24.126;2022-12-29T09:21:16;25.23;;;12.10;;
65145;SDS011;51730;56.950;24.126;2022-12-29T09:23:44;26.95;;;13.18;;
65145;SDS011;51730;56.950;24.126;2022-12-29T09:26:10;29.02;;;12.70;;
65145;SDS011;51730;56.950;24.126;2022-12-29T09:28:37;29.17;;;13.50;;
65145;SDS011;51730;56.950;24.126;2022-12-29T09:31:04;26.33;;;13.70;;
65145;SDS011;51730;56.950;24.126;2022-12-29T09:33:32;27.65;;;13.52;;
65145;SDS011;51730;56.950;24.126;2022-12-29T09:36:01;29.27;;;12.65;;
65145;SDS011;51730;56.950;24.126;2022-12-29T09:38:29;31.40;;;14.95;;
65145;SDS011;51730;56.950;24.126;2022-12-29T09:41:01;33.28;;;15.52;;
65145;SDS011;51730;56.950;24.126;2022-12-29T09:43:51;27.83;;;13.93;;
65145;SDS011;51730;56.950;24.126;2022-12-29T09:46:32;26.55;;;12.63;;
65145;SDS011;51730;56.950;24.126;2022-12-29T09:52:15;24.63;;;13.30;;
65145;SDS011;51730;56.950;24.126;2022-12-29T09:54:57;25.00;;;12.55;;
65145;SDS011;51730;56.950;24.126;2022-12-29T09:57:41;25.48;;;12.80;;
65145;SDS011;51730;56.950;24.126;2022-12-29T10:00:37;26.60;;;12.32;;
65145;SDS011;51730;56.950;24.126;2022-12-29T10:04:03;23.98;;;12.88;;
65145;SDS011;51730;56.950;24.126;2022-12-29T10:06:31;24.63;;;13.25;;
65145;SDS011;51730;56.950;24.126;2022-12-29T10:21:12;24.42;;;12.15;;
65145;SDS011;51730;56.950;24.126;2022-12-29T10:23:52;28.02;;;12.55;;
65145;SDS011;51730;56.950;24.126;2022-12-29T10:26:23;27.73;;;13.55;;
65145;SDS011;51730;56.950;24.126;2022-12-29T10:28:56;22.55;;;12.88;;
65145;SDS011;51730;56.950;24.126;2022-12-29T10:34:42;23.00;;;11.82;;
65145;SDS011;51730;56.950;24.126;2022-12-29T10:37:29;24.40;;;12.18;;
65145;SDS011;51730;56.950;24.126;2022-12-29T10:40:11;23.27;;;11.43;;
65145;SDS011;51730;56.950;24.126;2022-12-29T10:42:52;22.95;;;10.80;;
65145;SDS011;51730;56.950;24.126;2022-12-29T10:45:21;19.98;;;10.23;;
65145;SDS011;51730;56.950;24.126;2022-12-29T10:48:05;20.85;;;11.82;;
65145;SDS011;51730;56.950;24.126;2022-12-29T10:50:37;21.73;;;11.48;;
65145;SDS011;51730;56.950;24.126;2022-12-29T10:55:43;18.40;;;9.95;;
65145;SDS011;51730;56.950;24.126;2022-12-29T10:58:12;18.38;;;10.32;;
65145;SDS011;51730;56.950;24.126;2022-12-29T11:00:40;19.38;;;11.27;;
65145;SDS011;51730;56.950;24.126;2022-12-29T11:06:13;20.92;;;11.45;;
65145;SDS011;51730;56.950;24.126;2022-12-29T11:08:55;21.05;;;12.63;;
65145;SDS011;51730;56.950;24.126;2022-12-29T11:11:34;21.23;;;10.15;;
65145;SDS011;51730;56.950;24.126;2022-12-29T11:14:10;18.85;;;10.55;;
65145;SDS011;51730;56.950;24.126;2022-12-29T11:16:44;19.35;;;11.20;;
65145;SDS011;51730;56.950;24.126;2022-12-29T11:19:29;20.98;;;11.00;;
65145;SDS011;51730;56.950;24.126;2022-12-29T11:24:52;18.42;;;10.02;;
65145;SDS011;51730;56.950;24.126;2022-12-29T11:27:24;17.85;;;9.90;;
65145;SDS011;51730;56.950;24.126;2022-12-29T11:29:53;18.00;;;10.10;;
65145;SDS011;51730;56.950;24.126;2022-12-29T11:32:24;20.10;;;10.63;;
65145;SDS011;51730;56.950;24.126;2022-12-29T11:34:55;17.45;;;9.65;;
65145;SDS011;51730;56.950;24.126;2022-12-29T11:37:30;19.55;;;9.45;;
65145;SDS011;51730;56.950;24.126;2022-12-29T11:40:06;16.08;;;9.05;;
65145;SDS011;51730;56.950;24.126;2022-12-29T11:42:50;21.13;;;10.07;;
65145;SDS011;51730;56.950;24.126;2022-12-29T11:45:25;16.90;;;9.32;;
65145;SDS011;51730;56.950;24.126;2022-12-29T11:48:00;19.63;;;9.95;;
65145;SDS011;51730;56.950;24.126;2022-12-29T11:50:50;19.08;;;10.88;;
65145;SDS011;51730;56.950;24.126;2022-12-29T11:53:21;23.13;;;11.95;;
65145;SDS011;51730;56.950;24.126;2022-12-29T11:55:55;19.20;;;10.38;;
65145;SDS011;51730;56.950;24.126;2022-12-29T11:58:29;23.20;;;11.52;;
65145;SDS011;51730;56.950;24.126;2022-12-29T12:01:02;17.40;;;10.33;;
65145;SDS011;51730;56.950;24.126;2022-12-29T12:03:38;22.33;;;10.88;;
65145;SDS011;51730;56.950;24.126;2022-12-29T12:06:25;23.63;;;11.73;;
65145;SDS011;51730;56.950;24.126;2022-12-29T12:08:59;23.30;;;11.95;;
65145;SDS011;51730;56.950;24.126;2022-12-29T12:11:36;22.23;;;12.70;;
65145;SDS011;51730;56.950;24.126;2022-12-29T12:19:14;21.80;;;12.07;;
65145;SDS011;51730;56.950;24.126;2022-12-29T12:21:57;24.50;;;11.70;;
65145;SDS011;51730;56.950;24.126;2022-12-29T12:27:37;21.65;;;11.40;;
65145;SDS011;51730;56.950;24.126;2022-12-29T12:30:22;21.05;;;11.35;;
65145;SDS011;51730;56.950;24.126;2022-12-29T12:36:18;36.00;;;18.27;;
65145;SDS011;51730;56.950;24.126;2022-12-29T12:41:40;27.98;;;15.40;;
65145;SDS011;51730;56.950;24.126;2022-12-29T12:54:03;27.20;;;13.38;;
65145;SDS011;51730;56.950;24.126;2022-12-29T12:59:42;23.15;;;12.70;;
65145;SDS011;51730;56.950;24.126;2022-12-29T13:07:59;21.33;;;12.82;;
65145;SDS011;51730;56.950;24.126;2022-12-29T13:16:29;23.60;;;12.70;;
65145;SDS011;51730;56.950;24.126;2022-12-29T13:19:08;22.77;;;12.07;;
65145;SDS011;51730;56.950;24.126;2022-12-29T13:25:35;25.35;;;12.40;;
65145;SDS011;51730;56.950;24.126;2022-12-29T13:30:34;29.23;;;15.15;;
65145;SDS011;51730;56.950;24.126;2022-12-29T13:33:38;24.92;;;12.93;;
65145;SDS011;51730;56.950;24.126;2022-12-29T13:36:37;23.55;;;13.43;;
65145;SDS011;51730;56.950;24.126;2022-12-29T13:41:50;28.38;;;14.57;;
65145;SDS011;51730;56.950;24.126;2022-12-29T13:44:23;21.63;;;12.07;;
65145;SDS011;51730;56.950;24.126;2022-12-29T13:49:32;24.27;;;11.80;;
65145;SDS011;51730;56.950;24.126;2022-12-29T13:52:21;34.95;;;15.82;;
65145;SDS011;51730;56.950;24.126;2022-12-29T13:58:03;27.50;;;13.40;;
65145;SDS011;51730;56.950;24.126;2022-12-29T14:03:43;29.95;;;14.80;;
65145;SDS011;51730;56.950;24.126;2022-12-29T14:06:16;41.22;;;23.15;;
65145;SDS011;51730;56.950;24.126;2022-12-29T14:08:56;30.52;;;15.00;;
65145;SDS011;51730;56.950;24.126;2022-12-29T14:11:32;35.33;;;16.40;;
65145;SDS011;51730;56.950;24.126;2022-12-29T14:14:40;28.63;;;14.23;;
65145;SDS011;51730;56.950;24.126;2022-12-29T14:17:08;30.20;;;14.52;;
65145;SDS011;51730;56.950;24.126;2022-12-29T14:19:41;32.22;;;14.48;;
65145;SDS011;51730;56.950;24.126;2022-12-29T14:22:10;35.53;;;16.20;;
65145;SDS011;51730;56.950;24.126;2022-12-29T14:24:40;32.83;;;14.35;;
65145;SDS011;51730;56.950;24.126;2022-12-29T14:34:51;36.00;;;16.40;;
65145;SDS011;51730;56.950;24.126;2022-12-29T14:37:22;37.92;;;17.60;;
65145;SDS011;51730;56.950;24.126;2022-12-29T14:42:53;35.85;;;16.80;;
65145;SDS011;51730;56.950;24.126;2022-12-29T14:45:30;42.35;;;20.67;;
65145;SDS011;51730;56.950;24.126;2022-12-29T14:48:05;40.22;;;17.80;;
65145;SDS011;51730;56.950;24.126;2022-12-29T14:50:50;38.13;;;17.70;;
65145;SDS011;51730;56.950;24.126;2022-12-29T14:54:02;50.65;;;22.38;;
65145;SDS011;51730;56.950;24.126;2022-12-29T14:56:08;44.80;;;18.55;;
65145;SDS011;51730;56.950;24.126;2022-12-29T14:58:53;38.25;;;17.58;;
65145;SDS011;51730;56.950;24.126;2022-12-29T15:01:43;40.67;;;18.23;;
65145;SDS011;51730;56.950;24.126;2022-12-29T15:04:17;45.38;;;19.00;;
65145;SDS011;51730;56.950;24.126;2022-12-29T15:09:19;36.28;;;16.27;;
65145;SDS011;51730;56.950;24.126;2022-12-29T15:11:52;41.90;;;17.00;;
65145;SDS011;51730;56.950;24.126;2022-12-29T15:17:01;39.85;;;17.85;;
65145;SDS011;51730;56.950;24.126;2022-12-29T15:19:35;45.80;;;19.05;;
65145;SDS011;51730;56.950;24.126;2022-12-29T15:22:03;45.80;;;18.70;;
65145;SDS011;51730;56.950;24.126;2022-12-29T15:24:30;45.05;;;19.52;;
65145;SDS011;51730;56.950;24.126;2022-12-29T15:27:10;43.33;;;19.17;;
65145;SDS011;51730;56.950;24.126;2022-12-29T15:29:42;37.90;;;17.73;;
65145;SDS011;51730;56.950;24.126;2022-12-29T15:32:22;41.13;;;17.50;;
65145;SDS011;51730;56.950;24.126;2022-12-29T15:34:52;39.72;;;16.20;;
65145;SDS011;51730;56.950;24.126;2022-12-29T15:37:39;38.42;;;16.00;;
65145;SDS011;51730;56.950;24.126;2022-12-29T15:40:19;35.58;;;15.73;;
65145;SDS011;51730;56.950;24.126;2022-12-29T15:42:57;45.17;;;21.23;;
65145;SDS011;51730;56.950;24.126;2022-12-29T15:45:44;33.97;;;15.40;;
65145;SDS011;51730;56.950;24.126;2022-12-29T15:48:14;34.13;;;15.82;;
65145;SDS011;51730;56.950;24.126;2022-12-29T15:50:44;35.83;;;17.17;;
65145;SDS011;51730;56.950;24.126;2022-12-29T15:53:14;31.63;;;15.82;;
65145;SDS011;51730;56.950;24.126;2022-12-29T15:55:50;35.30;;;14.35;;
65145;SDS011;51730;56.950;24.126;2022-12-29T15:58:26;26.63;;;13.70;;
65145;SDS011;51730;56.950;24.126;2022-12-29T16:00:58;30.13;;;13.63;;
65145;SDS011;51730;56.950;24.126;2022-12-29T16:03:28;28.95;;;13.32;;
65145;SDS011;51730;56.950;24.126;2022-12-29T16:06:21;28.85;;;13.75;;
65145;SDS011;51730;56.950;24.126;2022-12-29T16:09:07;26.85;;;13.10;;
65145;SDS011;51730;56.950;24.126;2022-12-29T16:11:51;26.73;;;14.00;;
65145;SDS011;51730;56.950;24.126;2022-12-29T16:14:24;32.95;;;15.55;;
65145;SDS011;51730;56.950;24.126;2022-12-29T16:16:56;27.67;;;14.23;;
65145;SDS011;51730;56.950;24.126;2022-12-29T16:19:29;27.38;;;14.43;;
65145;SDS011;51730;56.950;24.126;2022-12-29T16:22:00;33.50;;;15.80;;
65145;SDS011;51730;56.950;24.126;2022-12-29T16:24:32;24.23;;;13.40;;
65145;SDS011;51730;56.950;24.126;2022-12-29T16:27:06;23.42;;;12.13;;
65145;SDS011;51730;56.950;24.126;2022-12-29T16:29:43;24.02;;;12.48;;
65145;SDS011;51730;56.950;24.126;2022-12-29T16:32:23;22.45;;;10.93;;
65145;SDS011;51730;56.950;24.126;2022-12-29T16:35:53;22.40;;;11.60;;
65145;SDS011;51730;56.950;24.126;2022-12-29T16:43:25;21.98;;;11.40;;
65145;SDS011;51730;56.950;24.126;2022-12-29T16:50:52;21.80;;;11.98;;
65145;SDS011;51730;56.950;24.126;2022-12-29T16:53:33;20.60;;;11.38;;
65145;SDS011;51730;56.950;24.126;2022-12-29T16:56:20;26.23;;;13.05;;
65145;SDS011;51730;56.950;24.126;2022-12-29T16:58:51;22.48;;;13.35;;
65145;SDS011;51730;56.950;24.126;2022-12-29T17:01:23;22.23;;;13.40;;
65145;SDS011;51730;56.950;24.126;2022-12-29T17:03:51;22.20;;;11.75;;